createdAt,value
2018-09-18T00:00:35.547Z,101483.77
2018-09-18T00:03:41.315Z,101470.84
2018-09-18T00:06:46.758Z,101475.64
2018-09-18T00:09:52.415Z,101473.69
2018-09-18T00:12:57.772Z,101466.96
2018-09-18T00:16:03.478Z,101467.36
2018-09-18T00:19:08.918Z,101463.38
2018-09-18T00:22:14.268Z,101457.03
2018-09-18T00:25:20.001Z,101458.73
2018-09-18T00:28:25.641Z,101453.80
2018-09-18T00:31:31.089Z,101450.45
2018-09-18T00:34:36.465Z,101452.96
2018-09-18T00:37:42.226Z,101447.41
2018-09-18T00:40:47.601Z,101443.81
2018-09-18T00:43:53.005Z,101443.39
2018-09-18T00:46:58.370Z,101434.74
2018-09-18T00:50:03.819Z,101433.39
2018-09-18T00:53:09.361Z,101432.98
2018-09-18T00:56:14.734Z,101432.67
2018-09-18T00:59:20.214Z,101425.80
2018-09-18T01:02:25.571Z,101427.48
2018-09-18T01:05:31.090Z,101421.34
2018-09-18T01:08:36.626Z,101423.05
2018-09-18T01:11:42.002Z,101419.30
2018-09-18T01:14:47.389Z,101419.11
2018-09-18T01:17:52.869Z,101415.18
2018-09-18T01:20:58.336Z,101412.73
2018-09-18T01:24:03.693Z,101417.18
2018-09-18T01:27:09.070Z,101407.83
2018-09-18T01:30:14.477Z,101412.34
2018-09-18T01:33:19.839Z,101413.06
2018-09-18T01:36:25.621Z,101403.75
2018-09-18T01:39:31.142Z,101406.37
2018-09-18T01:42:36.489Z,101403.35
2018-09-18T01:45:41.921Z,101399.97
2018-09-18T01:48:47.316Z,101396.33
2018-09-18T01:51:52.874Z,101390.00
2018-09-18T01:54:58.289Z,101391.41
2018-09-18T01:58:03.762Z,101394.40
2018-09-18T02:01:09.177Z,101394.61
2018-09-18T02:04:14.519Z,101387.27
2018-09-18T02:07:19.906Z,101390.06
2018-09-18T02:10:25.323Z,101385.73
2018-09-18T02:13:30.671Z,101388.17
2018-09-18T02:16:36.030Z,101394.11
2018-09-18T02:19:41.513Z,101390.06
2018-09-18T02:22:46.881Z,101389.84
2018-09-18T02:25:52.359Z,101380.27
2018-09-18T02:28:57.881Z,101382.62
2018-09-18T02:32:03.715Z,101381.67
2018-09-18T02:35:09.093Z,101378.04
2018-09-18T02:38:14.488Z,101379.10
2018-09-18T02:41:20.498Z,101380.59
2018-09-18T02:44:25.851Z,101379.64
2018-09-18T02:47:31.342Z,101368.11
2018-09-18T02:50:36.757Z,101364.98
2018-09-18T02:53:42.121Z,101367.14
2018-09-18T02:56:47.562Z,101370.34
2018-09-18T02:59:53.090Z,101366.63
2018-09-18T03:02:58.461Z,101368.38
2018-09-18T03:06:04.010Z,101357.78
2018-09-18T03:09:10.876Z,101358.52
2018-09-18T03:12:16.263Z,101358.14
2018-09-18T03:15:22.286Z,101359.28
2018-09-18T03:18:27.672Z,101365.42
2018-09-18T03:21:33.063Z,101356.08
2018-09-18T03:24:38.416Z,101355.53
2018-09-18T03:27:43.824Z,101349.48
2018-09-18T03:30:49.234Z,101347.55
2018-09-18T03:33:54.589Z,101346.25
2018-09-18T03:37:00.066Z,101342.80
2018-09-18T03:40:05.829Z,101341.27
2018-09-18T03:43:11.249Z,101337.33
2018-09-18T03:46:16.647Z,101336.80
2018-09-18T03:49:22.118Z,101331.86
2018-09-18T03:52:27.525Z,101331.87
2018-09-18T03:55:32.913Z,101336.69
2018-09-18T03:58:38.369Z,101332.95
2018-09-18T04:01:43.737Z,101327.67
2018-09-18T04:04:49.093Z,101325.23
2018-09-18T04:07:54.597Z,101318.14
2018-09-18T04:11:00.290Z,101319.36
2018-09-18T04:14:05.687Z,101321.98
2018-09-18T04:17:11.092Z,101316.59
2018-09-18T04:20:16.789Z,101317.33
2018-09-18T04:23:22.174Z,101308.57
2018-09-18T04:26:27.537Z,101315.88
2018-09-18T04:29:33.050Z,101316.72
2018-09-18T04:32:38.445Z,101310.83
2018-09-18T04:35:43.798Z,101305.48
2018-09-18T04:38:49.259Z,101300.41
2018-09-18T04:41:54.709Z,101294.52
2018-09-18T04:45:00.186Z,101300.12
2018-09-18T04:48:06.165Z,101298.89
2018-09-18T04:51:11.693Z,101295.75
2018-09-18T04:54:17.052Z,101291.73
2018-09-18T04:57:22.494Z,101291.66
2018-09-18T05:00:27.850Z,101292.86
2018-09-18T05:03:33.554Z,101290.03
2018-09-18T05:06:38.959Z,101291.98
2018-09-18T05:09:44.433Z,101291.67
2018-09-18T05:12:49.821Z,101297.67
2018-09-18T05:15:55.297Z,101292.13
2018-09-18T05:19:00.864Z,101298.52
2018-09-18T05:22:06.253Z,101295.05
2018-09-18T05:25:11.821Z,101295.28
2018-09-18T05:28:17.252Z,101288.45
2018-09-18T05:31:22.621Z,101293.44
2018-09-18T05:34:27.994Z,101290.58
2018-09-18T05:37:33.491Z,101294.25
2018-09-18T05:40:38.854Z,101293.61
2018-09-18T05:43:44.558Z,101293.47
2018-09-18T05:46:50.034Z,101294.72
2018-09-18T05:49:55.606Z,101294.18
2018-09-18T05:53:01.017Z,101294.37
2018-09-18T05:56:06.382Z,101294.89
2018-09-18T05:59:11.849Z,101290.84
2018-09-18T06:02:17.251Z,101291.97
2018-09-18T06:05:22.864Z,101290.87
2018-09-18T06:08:28.294Z,101289.58
2018-09-18T06:11:34.052Z,101291.00
2018-09-18T06:14:39.599Z,101281.28
2018-09-18T06:17:45.185Z,101279.06
2018-09-18T06:20:50.625Z,101279.20
2018-09-18T06:23:56.028Z,101282.80
2018-09-18T06:27:01.382Z,101278.87
2018-09-18T06:30:07.167Z,101272.78
2018-09-18T06:33:12.582Z,101280.01
2018-09-18T06:36:18.123Z,101276.94
2018-09-18T06:39:23.595Z,101276.20
2018-09-18T06:42:29.060Z,101281.30
2018-09-18T06:45:34.650Z,101283.66
2018-09-18T06:48:40.301Z,101273.81
2018-09-18T06:51:45.745Z,101274.47
2018-09-18T06:54:51.127Z,101273.92
2018-09-18T06:57:56.619Z,101272.22
2018-09-18T07:01:02.074Z,101267.34
2018-09-18T07:04:07.448Z,101270.63
2018-09-18T07:07:13.713Z,101270.67
2018-09-18T07:10:19.246Z,101265.97
2018-09-18T07:13:24.642Z,101267.91
2018-09-18T07:16:29.998Z,101263.00
2018-09-18T07:19:35.720Z,101259.35
2018-09-18T07:22:41.560Z,101259.69
2018-09-18T07:25:47.023Z,101252.42
2018-09-18T07:28:52.545Z,101248.30
2018-09-18T07:31:57.929Z,101247.28
2018-09-18T07:35:03.322Z,101255.56
2018-09-18T07:38:08.686Z,101253.00
2018-09-18T07:41:14.100Z,101258.35
2018-09-18T07:44:19.482Z,101257.55
2018-09-18T07:47:24.973Z,101245.88
2018-09-18T07:50:30.354Z,101254.98
2018-09-18T07:53:35.766Z,101252.94
2018-09-18T07:56:41.120Z,101250.10
2018-09-18T07:59:46.517Z,101250.84
2018-09-18T08:02:53.994Z,101243.64
2018-09-18T08:05:59.367Z,101245.48
2018-09-18T08:09:08.343Z,101250.38
2018-09-18T08:12:13.710Z,101245.11
2018-09-18T08:15:19.078Z,101252.47
2018-09-18T08:18:24.430Z,101251.51
2018-09-18T08:21:29.905Z,101251.39
2018-09-18T08:24:35.294Z,101239.80
2018-09-18T08:27:40.666Z,101247.66
2018-09-18T08:30:46.087Z,101251.89
2018-09-18T08:33:51.506Z,101247.50
2018-09-18T08:36:56.917Z,101246.34
2018-09-18T08:40:02.492Z,101244.22
2018-09-18T08:43:08.490Z,101239.66
2018-09-18T08:46:13.924Z,101240.42
2018-09-18T08:49:19.497Z,101236.34
2018-09-18T08:52:24.854Z,101237.19
2018-09-18T08:55:30.276Z,101243.07
2018-09-18T08:58:35.847Z,101239.19
2018-09-18T09:01:42.107Z,101223.48
2018-09-18T09:04:47.609Z,101224.31
2018-09-18T09:07:53.038Z,101222.31
2018-09-18T09:10:58.656Z,101220.13
2018-09-18T09:14:04.160Z,101204.53
2018-09-18T09:17:09.544Z,101197.91
2018-09-18T09:20:15.411Z,101190.55
2018-09-18T09:23:20.804Z,101194.22
2018-09-18T09:26:26.481Z,101180.97
2018-09-18T09:29:32.010Z,101192.48
2018-09-18T09:32:37.702Z,101190.92
2018-09-18T09:35:43.136Z,101183.27
2018-09-18T09:38:48.607Z,101182.34
2018-09-18T09:41:54.110Z,101177.96
2018-09-18T09:44:59.545Z,101181.98
2018-09-18T09:48:05.070Z,101172.03
2018-09-18T09:51:10.527Z,101178.64
2018-09-18T09:54:16.040Z,101162.80
2018-09-18T09:57:21.418Z,101170.40
2018-09-18T10:00:32.038Z,101167.06
2018-09-18T10:03:37.405Z,101157.88
2018-09-18T10:06:42.778Z,101164.52
2018-09-18T10:09:48.127Z,101156.82
2018-09-18T10:12:53.502Z,101157.27
2018-09-18T10:15:58.882Z,101150.79
2018-09-18T10:19:05.394Z,101151.27
2018-09-18T10:22:10.793Z,101144.17
2018-09-18T10:25:16.858Z,101143.27
2018-09-18T10:28:22.440Z,101142.38
2018-09-18T10:31:28.054Z,101136.38
2018-09-18T10:34:35.530Z,101120.52
2018-09-18T10:37:41.532Z,101119.95
2018-09-18T10:40:47.165Z,101113.67
2018-09-18T10:43:52.707Z,101111.00
2018-09-18T10:46:58.310Z,101113.24
2018-09-18T10:50:03.750Z,101115.17
2018-09-18T10:53:09.130Z,101105.11
2018-09-18T10:56:14.510Z,101101.87
2018-09-18T10:59:19.869Z,101103.28
2018-09-18T11:02:25.291Z,101099.20
2018-09-18T11:05:31.536Z,101091.23
2018-09-18T11:08:37.598Z,101089.11
2018-09-18T11:11:43.342Z,101088.47
2018-09-18T11:14:48.766Z,101083.59
2018-09-18T11:17:54.385Z,101085.47
2018-09-18T11:21:00.041Z,101082.59
2018-09-18T11:24:06.431Z,101081.72
2018-09-18T11:27:11.989Z,101073.98
2018-09-18T11:30:17.373Z,101073.48
2018-09-18T11:33:22.752Z,101072.47
2018-09-18T11:36:28.886Z,101064.09
2018-09-18T11:39:34.928Z,101064.88
2018-09-18T11:42:40.298Z,101052.75
2018-09-18T11:45:45.784Z,101054.76
2018-09-18T11:48:51.327Z,101053.55
2018-09-18T11:51:56.698Z,101044.95
2018-09-18T11:55:02.067Z,101038.59
2018-09-18T11:58:07.486Z,101026.98
2018-09-18T12:01:12.900Z,101033.45
2018-09-18T12:04:18.252Z,101033.50
2018-09-18T12:07:23.657Z,101041.78
2018-09-18T12:10:29.050Z,101035.77
2018-09-18T12:13:34.427Z,101031.74
2018-09-18T12:16:39.802Z,101025.25
2018-09-18T12:19:45.154Z,101027.77
2018-09-18T12:22:50.612Z,101024.73
2018-09-18T12:25:56.102Z,101019.45
2018-09-18T12:29:01.526Z,101016.16
2018-09-18T12:32:07.462Z,101009.09
2018-09-18T12:35:12.924Z,101011.20
2018-09-18T12:38:18.457Z,101003.00
2018-09-18T12:41:23.911Z,101006.13
2018-09-18T12:44:29.446Z,101008.30
2018-09-18T12:47:35.203Z,101000.06
2018-09-18T12:50:40.625Z,100999.17
2018-09-18T12:53:46.343Z,100994.57
2018-09-18T12:56:51.966Z,100989.23
2018-09-18T12:59:57.640Z,100997.35
2018-09-18T13:03:03.201Z,101009.80
2018-09-18T13:06:08.625Z,100990.42
2018-09-18T13:09:14.594Z,100985.23
2018-09-18T13:12:19.991Z,100985.27
2018-09-18T13:15:25.617Z,100981.27
2018-09-18T13:18:31.273Z,100987.22
2018-09-18T13:21:36.710Z,100977.48
2018-09-18T13:24:42.310Z,100975.23
2018-09-18T13:27:48.668Z,100975.92
2018-09-18T13:30:54.538Z,100961.70
2018-09-18T13:33:59.906Z,100959.92
2018-09-18T13:37:05.978Z,100960.05
2018-09-18T13:40:11.796Z,100947.98
2018-09-18T13:43:17.170Z,100946.54
2018-09-18T13:46:22.689Z,100937.63
2018-09-18T13:49:28.821Z,100933.50
2018-09-18T13:52:34.229Z,100936.64
2018-09-18T13:55:40.648Z,100927.61
2018-09-18T13:58:46.569Z,100923.19
2018-09-18T14:01:52.354Z,100920.65
2018-09-18T14:04:58.040Z,100920.33
2018-09-18T14:08:03.541Z,100914.81
2018-09-18T14:11:09.766Z,100919.34
2018-09-18T14:14:15.142Z,100916.16
2018-09-18T14:17:20.737Z,100916.33
2018-09-18T14:20:26.164Z,100903.41
2018-09-18T14:23:31.649Z,100907.25
2018-09-18T14:26:37.188Z,100903.39
2018-09-18T14:29:42.806Z,100901.23
2018-09-18T14:32:48.519Z,100900.51
2018-09-18T14:35:53.976Z,100893.78
2018-09-18T14:38:59.998Z,100891.94
2018-09-18T14:42:05.378Z,100891.51
2018-09-18T14:45:10.792Z,100900.95
2018-09-18T14:48:16.370Z,100886.78
2018-09-18T14:51:21.803Z,100895.66
2018-09-18T14:54:27.293Z,100888.73
2018-09-18T14:57:33.398Z,100885.22
2018-09-18T15:00:39.125Z,100887.80
2018-09-18T15:03:44.458Z,100875.30
2018-09-18T15:06:49.964Z,100875.02
2018-09-18T15:09:55.338Z,100875.89
2018-09-18T15:13:01.093Z,100878.81
2018-09-18T15:16:06.837Z,100871.35
2018-09-18T15:19:12.458Z,100878.06
2018-09-18T15:22:17.971Z,100878.87
2018-09-18T15:25:23.665Z,100872.98
2018-09-18T15:28:29.018Z,100868.96
2018-09-18T15:31:34.930Z,100874.39
2018-09-18T15:34:40.281Z,100877.83
2018-09-18T15:37:45.640Z,100872.83
2018-09-18T15:40:51.005Z,100881.30
2018-09-18T15:43:56.354Z,100876.64
2018-09-18T15:47:01.887Z,100873.13
2018-09-18T15:50:07.636Z,100878.50
2018-09-18T15:53:12.993Z,100868.78
2018-09-18T15:56:18.366Z,100868.08
2018-09-18T15:59:23.737Z,100879.62
2018-09-18T16:02:29.086Z,100876.20
2018-09-18T16:05:34.450Z,100878.64
2018-09-18T16:08:39.903Z,100876.73
2018-09-18T16:11:45.281Z,100877.69
2018-09-18T16:14:50.706Z,100876.11
2018-09-18T16:17:56.247Z,100876.67
2018-09-18T16:21:02.585Z,100882.20
2018-09-18T16:24:08.377Z,100888.02
2018-09-18T16:27:13.749Z,100894.78
2018-09-18T16:30:19.157Z,100886.74
2018-09-18T16:33:24.514Z,100892.23
2018-09-18T16:36:30.728Z,100885.62
2018-09-18T16:39:36.461Z,100890.92
2018-09-18T16:42:42.394Z,100892.10
2018-09-18T16:45:47.898Z,100896.20
2018-09-18T16:48:53.730Z,100892.58
2018-09-18T16:51:59.090Z,100904.73
2018-09-18T16:55:05.276Z,100903.31
2018-09-18T16:58:10.849Z,100907.72
2018-09-18T17:01:16.209Z,100913.00
2018-09-18T17:04:21.563Z,100920.17
2018-09-18T17:07:26.994Z,100926.36
2018-09-18T17:10:32.459Z,100939.61
2018-09-18T17:13:38.034Z,100954.66
2018-09-18T17:16:43.399Z,100969.56
2018-09-18T17:19:48.804Z,100983.06
2018-09-18T17:22:54.182Z,100994.36
2018-09-18T17:25:59.570Z,101001.47
2018-09-18T17:29:04.996Z,101007.77
2018-09-18T17:32:10.566Z,101012.68
2018-09-18T17:35:15.920Z,101017.80
2018-09-18T17:38:21.297Z,101027.58
2018-09-18T17:41:26.766Z,101026.66
2018-09-18T17:44:32.263Z,101030.52
2018-09-18T17:47:37.920Z,101033.36
2018-09-18T17:50:43.478Z,101050.50
2018-09-18T17:53:49.233Z,101055.34
2018-09-18T17:56:54.626Z,101061.27
2018-09-18T18:00:00.152Z,101070.19
2018-09-18T18:03:05.545Z,101080.17
2018-09-18T18:06:10.911Z,101086.53
2018-09-18T18:09:16.245Z,101095.06
2018-09-18T18:12:21.604Z,101102.13
2018-09-18T18:15:27.074Z,101107.79
2018-09-18T18:18:32.451Z,101122.67
2018-09-18T18:21:37.877Z,101121.15
2018-09-18T18:24:43.230Z,101124.23
2018-09-18T18:27:48.789Z,101128.02
2018-09-18T18:30:54.220Z,101133.87
2018-09-18T18:34:00.311Z,101132.81
2018-09-18T18:37:05.702Z,101140.45
2018-09-18T18:40:11.069Z,101148.63
2018-09-18T18:43:16.449Z,101157.69
2018-09-18T18:46:21.846Z,101165.50
2018-09-18T18:49:28.171Z,101161.62
2018-09-18T18:52:33.678Z,101174.19
2018-09-18T18:55:39.038Z,101185.40
2018-09-18T18:58:44.578Z,101184.73
2018-09-18T19:01:49.966Z,101190.64
2018-09-18T19:04:56.032Z,101197.69
2018-09-18T19:08:01.424Z,101202.67
2018-09-18T19:11:06.815Z,101205.28
2018-09-18T19:14:12.342Z,101209.84
2018-09-18T19:17:17.728Z,101216.34
2018-09-18T19:20:23.093Z,101221.70
2018-09-18T19:26:32.926Z,101230.16
2018-09-18T19:29:38.332Z,101231.40
2018-09-18T19:32:43.778Z,101234.14
2018-09-18T19:35:49.334Z,101236.92
2018-09-18T19:38:54.701Z,101251.60
2018-09-18T19:42:00.531Z,101254.80
2018-09-18T19:45:05.985Z,101257.73
2018-09-18T19:48:11.355Z,101263.92
2018-09-18T19:51:16.701Z,101271.31
2018-09-18T19:54:22.600Z,101274.84
2018-09-18T19:57:27.971Z,101274.47
2018-09-18T20:00:33.330Z,101272.58
2018-09-18T20:03:38.716Z,101274.24
2018-09-18T20:06:44.065Z,101275.55
2018-09-18T20:09:49.450Z,101276.81
2018-09-18T20:12:54.802Z,101278.09
2018-09-18T20:16:00.205Z,101291.00
2018-09-18T20:19:05.637Z,101288.41
2018-09-18T20:22:11.686Z,101288.95
2018-09-18T20:25:17.562Z,101298.24
2018-09-18T20:28:22.914Z,101292.69
2018-09-18T20:31:28.343Z,101298.66
2018-09-18T20:34:33.749Z,101304.95
2018-09-18T20:37:39.144Z,101305.21
2018-09-18T20:40:44.606Z,101311.86
2018-09-18T20:43:52.098Z,101318.44
2018-09-18T20:46:57.996Z,101320.70
2018-09-18T20:50:05.155Z,101320.45
2018-09-18T20:53:10.545Z,101315.28
2018-09-18T20:56:15.943Z,101305.11
2018-09-18T20:59:21.389Z,101325.05
2018-09-18T21:02:27.117Z,101322.64
2018-09-18T21:05:32.545Z,101329.48
2018-09-18T21:08:37.927Z,101332.14
2018-09-18T21:11:43.343Z,101338.66
2018-09-18T21:14:48.763Z,101331.94
2018-09-18T21:17:54.570Z,101333.39
2018-09-18T21:21:00.066Z,101331.38
2018-09-18T21:24:05.899Z,101346.14
2018-09-18T21:27:11.357Z,101334.03
2018-09-18T21:30:17.733Z,101330.34
2018-09-18T21:33:23.114Z,101342.00
2018-09-18T21:36:28.503Z,101348.47
2018-09-18T21:39:33.879Z,101350.76
2018-09-18T21:42:39.280Z,101347.84
2018-09-18T21:45:44.762Z,101348.59
2018-09-18T21:48:50.136Z,101350.52
2018-09-18T21:51:55.522Z,101349.20
2018-09-18T21:55:00.890Z,101356.64
2018-09-18T21:58:06.286Z,101351.23
2018-09-18T22:01:12.114Z,101360.09
2018-09-18T22:04:17.665Z,101356.27
2018-09-18T22:07:23.066Z,101354.95
2018-09-18T22:10:28.459Z,101360.59
2018-09-18T22:13:33.836Z,101372.46
2018-09-18T22:16:39.225Z,101371.59
2018-09-18T22:19:44.594Z,101368.84
2018-09-18T22:22:50.452Z,101368.35
2018-09-18T22:25:55.863Z,101373.73
2018-09-18T22:29:01.242Z,101372.99
2018-09-18T22:32:06.680Z,101368.75
2018-09-18T22:35:12.156Z,101376.30
2018-09-18T22:38:17.719Z,101379.76
2018-09-18T22:41:23.115Z,101378.77
2018-09-18T22:44:28.483Z,101376.13
2018-09-18T22:47:33.910Z,101367.58
2018-09-18T22:50:39.316Z,101375.87
2018-09-18T22:53:44.874Z,101373.08
2018-09-18T22:56:50.258Z,101376.55
2018-09-18T22:59:55.626Z,101373.31
2018-09-18T23:03:01.013Z,101383.78
2018-09-18T23:06:06.374Z,101383.05
2018-09-18T23:09:11.773Z,101383.05
2018-09-18T23:12:17.156Z,101386.52
2018-09-18T23:15:22.528Z,101384.22
2018-09-18T23:18:27.918Z,101380.39
2018-09-18T23:21:33.283Z,101387.23
2018-09-18T23:24:38.672Z,101384.85
2018-09-18T23:27:44.060Z,101394.33
2018-09-18T23:30:49.418Z,101382.06
2018-09-18T23:33:54.772Z,101381.23
2018-09-18T23:37:00.102Z,101385.77
2018-09-18T23:40:05.852Z,101383.01
2018-09-18T23:43:11.449Z,101385.03
2018-09-18T23:46:16.781Z,101388.48
2018-09-18T23:49:22.158Z,101382.93
2018-09-18T23:52:27.494Z,101384.50
2018-09-18T23:55:32.854Z,101385.56
2018-09-18T23:58:38.218Z,101382.58
